»·PEaware :: LXJ411 KCOS-KAMA

LXJ411 :: KCOS-KAMA

FLIGHT INFORMATION

Flight Status: Arrived
Operator: Unknown
More flights by this operator :: More flights under this callsign
Pilot: Matt C. (5456)
Aircraft: BOMBARDIER BD-100 CHALLENGER 300
(CL30)
More flights by this aircraft type
Origin: KCOS City Of Colorado Springs Mun
United States
Destination: KAMA Amarillo Intl
United States
More flights between these airports :: More routes between these airports
Route: +COS5 PUB PNH
File this flight plan on PilotEdge
Remarks:
Altitude:
(Current/Filed)
31,000ft
Speed:
(Current/Filed)
480kts
Departed: 29-Sep-17 06:04 PM
Arrived: 29-Sep-17 06:53 PM
Distance/Time
Traveled:
259nm/0:48
Distance/Time
To Go:
Arrived

Flight Plot

Page will automatically refresh every two minutes.

Flight plan parsing failed; only flown route is shown


Map Options




Map Legend


Flown Route
Filed Route
Departure Airport
Arrival Airport
Navaid (VOR, NDB)
Fix

Horizontal Profiles

Position Reports

Time Latitude Longitude Heading Altitude Ground
Speed
29-Sep-17 17:47 38.811284 -104.720535 89 6206ft 0kts
29-Sep-17 17:48 38.811284 -104.720535 89 6206ft 0kts
29-Sep-17 17:49 38.811284 -104.720535 89 6206ft 0kts
29-Sep-17 17:50 38.811284 -104.720535 89 6206ft 0kts
29-Sep-17 17:51 38.811284 -104.720535 89 6206ft 0kts
29-Sep-17 17:52 38.811284 -104.720535 89 6206ft 0kts
29-Sep-17 17:53 38.811284 -104.720535 89 6206ft 0kts
29-Sep-17 17:54 38.811284 -104.720535 89 6206ft 0kts
29-Sep-17 17:55 38.811284 -104.720535 89 6206ft 0kts
29-Sep-17 17:56 38.811284 -104.720535 89 6206ft 0kts
29-Sep-17 17:57 38.811284 -104.720535 89 6206ft 0kts
29-Sep-17 17:58 38.811284 -104.720535 89 6206ft 0kts
29-Sep-17 17:59 38.811284 -104.720535 89 6206ft 0kts
29-Sep-17 18:00 38.811284 -104.720334 89 6207ft 7kts
29-Sep-17 18:01 38.812586 -104.718540 91 6206ft 12kts
29-Sep-17 18:02 38.814323 -104.717324 0 6206ft 18kts
29-Sep-17 18:03 38.814323 -104.717324 0 6206ft 18kts
29-Sep-17 18:04 38.818511 -104.717320 359 6207ft 13kts
29-Sep-17 18:05 38.821663 -104.717311 358 6207ft 10kts
29-Sep-17 18:06 38.822140 -104.717226 27 6206ft 0kts
29-Sep-17 18:07 38.821557 -104.715902 180 6206ft 20kts
29-Sep-17 18:08 38.776101 -104.717126 178 8319ft 222kts
29-Sep-17 18:09 38.717439 -104.710914 153 11627ft 287kts
29-Sep-17 18:10 38.639183 -104.658654 153 15426ft 345kts
29-Sep-17 18:11 38.553449 -104.601043 156 19716ft 356kts
29-Sep-17 18:12 38.465803 -104.542811 157 23709ft 365kts
29-Sep-17 18:13 38.385635 -104.489814 158 26258ft 391kts
29-Sep-17 18:14 38.283269 -104.417248 150 28217ft 435kts
29-Sep-17 18:15 38.190494 -104.331744 151 31198ft 436kts
29-Sep-17 18:16 38.086170 -104.234956 150 31213ft 490kts
29-Sep-17 18:17 37.976790 -104.133115 149 31207ft 496kts
29-Sep-17 18:18 37.869299 -104.033422 149 31211ft 492kts
29-Sep-17 18:19 37.759569 -103.932077 149 31211ft 491kts
29-Sep-17 18:20 37.650068 -103.831322 149 31212ft 490kts
29-Sep-17 18:21 37.540804 -103.731165 149 31213ft 489kts
29-Sep-17 18:22 37.431506 -103.631361 149 31219ft 489kts
29-Sep-17 18:23 37.323583 -103.533126 149 31266ft 484kts
29-Sep-17 18:24 37.215033 -103.434707 149 31267ft 482kts
29-Sep-17 18:25 37.108354 -103.338331 150 31261ft 481kts
29-Sep-17 18:26 37.001597 -103.242234 150 31258ft 478kts
29-Sep-17 18:27 36.893874 -103.145610 150 31204ft 479kts
29-Sep-17 18:28 36.788421 -103.051389 149 29496ft 476kts
29-Sep-17 18:29 36.682523 -102.957070 149 27597ft 466kts
29-Sep-17 18:30 36.578627 -102.864848 148 25619ft 456kts
29-Sep-17 18:31 36.477213 -102.775120 148 23632ft 445kts
29-Sep-17 18:32 36.378331 -102.687893 147 21640ft 432kts
29-Sep-17 18:33 36.282309 -102.603471 147 19649ft 419kts
29-Sep-17 18:34 36.189459 -102.522090 146 17659ft 404kts
29-Sep-17 18:35 36.100008 -102.443910 146 15673ft 390kts
29-Sep-17 18:36 36.013512 -102.368536 146 13684ft 375kts
29-Sep-17 18:37 35.932019 -102.297704 146 11719ft 359kts
29-Sep-17 18:38 35.854216 -102.238681 156 10979ft 303kts
29-Sep-17 18:39 35.785173 -102.200611 156 10978ft 249kts
29-Sep-17 18:40 35.724005 -102.169128 156 10980ft 228kts
29-Sep-17 18:41 35.667697 -102.141040 156 11005ft 224kts
29-Sep-17 18:42 35.608564 -102.111439 157 10991ft 232kts
29-Sep-17 18:43 35.549491 -102.081821 156 10985ft 229kts
29-Sep-17 18:44 35.487197 -102.062129 166 10223ft 236kts
29-Sep-17 18:45 35.424979 -102.045898 166 8932ft 226kts
29-Sep-17 18:46 35.365288 -102.030356 166 7549ft 216kts
29-Sep-17 18:47 35.307970 -102.015547 166 6131ft 224kts
29-Sep-17 18:48 35.240673 -101.997867 166 6004ft 270kts
29-Sep-17 18:49 35.165696 -101.977887 166 5974ft 265kts
29-Sep-17 18:50 35.097532 -101.959899 166 5987ft 248kts
29-Sep-17 18:51 35.069341 -101.911146 66 6009ft 196kts
29-Sep-17 18:52 35.100461 -101.865041 48 5963ft 156kts
29-Sep-17 18:53 35.128164 -101.829850 49 5790ft 141kts
29-Sep-17 18:54 35.153188 -101.798168 49 5092ft 129kts
29-Sep-17 18:55 35.179095 -101.765516 48 4385ft 137kts
29-Sep-17 18:56 35.204334 -101.733684 49 3675ft 123kts
29-Sep-17 18:57 35.219028 -101.715163 46 3613ft 40kts
29-Sep-17 18:58 35.218688 -101.711485 134 3613ft 11kts
29-Sep-17 18:59 35.218019 -101.708853 73 3613ft 9kts
29-Sep-17 19:00 35.217726 -101.708612 227 3612ft 0kts
29-Sep-17 19:01 35.217726 -101.708612 227 3612ft 0kts
29-Sep-17 19:02 35.217726 -101.708612 227 3612ft 0kts
29-Sep-17 19:03 35.217726 -101.708612 227 3612ft 0kts

Navigation Log

Ident Type
Flight plan parsing failed, navigation log unavailable